Time;durP1;ratioP1;P1;durP2;ratioP2;P2;SDS_P1;SDS_P2;PMS_P1;PMS_P2;Temp;Humidity;BMP_temperature;BMP_pressure;BME280_temperature;BME280_humidity;BME280_pressure;Samples;Min_cycle;Max_cycle;Signal;HPM_P1;HPM_P2
2021/11/17 02:28:09;;;;;;;;;40.50;35.00;;;;;12.44;66.27;101750.38;5089597;27;74100;-85
2021/11/17 02:30:53;;;;;;;;;48.50;35.00;;;;;12.44;66.35;101747.72;5101160;27;45352;-86
2021/11/17 02:33:36;;;;;;;;;42.50;35.75;;;;;12.43;66.23;101741.50;5101425;27;45226;-87
2021/11/17 02:36:20;;;;;;;;;46.00;36.25;;;;;12.44;66.17;101732.50;5098274;27;45401;-87
2021/11/17 02:38:55;;;;;;;;;49.00;36.00;;;;;12.46;66.22;101735.16;5098455;27;46027;-87
2021/11/17 02:41:23;;;;;;;;;48.00;37.25;;;;;12.45;66.18;101742.31;5091133;27;45266;-87
2021/11/17 02:44:10;;;;;;;;;42.00;35.50;;;;;12.47;65.97;101737.81;5101281;27;45297;-87
2021/11/17 02:46:47;;;;;;;;;45.75;35.00;;;;;12.48;66.25;101725.28;5100828;27;45455;-87
2021/11/17 02:49:33;;;;;;;;;51.50;40.00;;;;;12.45;66.10;101715.53;5100710;27;45393;-87
2021/11/17 02:52:08;;;;;;;;;50.50;38.75;;;;;12.42;66.14;101711.13;5100456;27;45514;-87
2021/11/17 02:54:55;;;;;;;;;41.00;36.25;;;;;12.44;66.33;101719.13;5099897;27;45395;-87
2021/11/17 02:57:26;;;;;;;;;54.25;39.75;;;;;12.45;66.25;101739.66;5100932;27;45490;-87
2021/11/17 03:00:07;;;;;;;;;47.00;35.25;;;;;12.45;66.08;101745.00;5100572;27;45252;-88
2021/11/17 03:03:06;;;;;;;;;48.00;37.50;;;;;12.45;65.92;101742.31;5100231;27;45309;-87
2021/11/17 03:05:37;;;;;;;;;45.00;36.00;;;;;12.44;65.79;101740.56;5099475;27;45263;-87
2021/11/17 03:08:27;;;;;;;;;52.25;39.50;;;;;12.44;65.87;101745.03;5099284;27;45502;-88
2021/11/17 03:10:55;;;;;;;;;41.00;35.25;;;;;12.43;66.05;101746.84;5100344;27;45414;-87
2021/11/17 03:13:42;;;;;;;;;51.25;37.25;;;;;12.44;66.11;101756.63;5100017;27;45600;-87
2021/11/17 03:16:26;;;;;;;;;42.25;33.75;;;;;12.41;66.15;101751.34;5100535;27;45287;-87
2021/11/17 03:19:22;;;;;;;;;49.75;38.50;;;;;12.40;66.35;101754.94;5100601;27;45483;-87
2021/11/17 03:21:59;;;;;;;;;52.00;41.25;;;;;12.36;66.32;101763.94;5094747;27;45574;-86
2021/11/17 03:24:33;;;;;;;;;55.25;42.50;;;;;12.30;66.66;101772.16;5100382;27;45207;-87
2021/11/17 03:27:24;;;;;;;;;40.00;35.75;;;;;12.25;66.60;101768.69;5100376;27;45276;-87
2021/11/17 03:29:59;;;;;;;;;49.75;39.25;;;;;12.25;66.66;101782.09;5084819;27;45283;-87
2021/11/17 03:32:34;;;;;;;;;49.50;36.75;;;;;12.29;66.53;101791.78;5098623;27;45409;-87
2021/11/17 03:35:21;;;;;;;;;50.75;38.50;;;;;12.28;66.44;101801.63;5100041;27;45814;-88
2021/11/17 03:37:50;;;;;;;;;47.25;38.75;;;;;12.31;66.74;101800.66;5099518;27;45328;-87
2021/11/17 03:40:24;;;;;;;;;16.25;6.50;;;;;12.31;66.39;101801.56;5098608;27;45758;-87
2021/11/17 03:43:21;;;;;;;;;40.25;34.50;;;;;12.35;66.58;101805.03;5098908;27;48132;-88
2021/11/17 03:46:22;;;;;;;;;52.25;39.00;;;;;12.36;66.58;101801.44;5086800;27;45164;-88
2021/11/17 03:48:48;;;;;;;;;45.00;37.25;;;;;12.35;66.47;101803.25;5088224;27;45477;-87
2021/11/17 03:51:48;;;;;;;;;48.25;39.25;;;;;12.35;66.56;101797.00;5099783;27;45234;-88
2021/11/17 03:55:04;;;;;;;;;52.50;37.75;;;;;12.37;66.42;101805.88;5088993;27;45442;-88
2021/11/17 03:57:35;;;;;;;;;51.25;40.00;;;;;12.35;66.58;101805.91;5080960;27;45738;-87
2021/11/17 04:00:19;;;;;;;;;49.25;38.25;;;;;12.35;66.66;101810.41;5100037;27;45226;-87
2021/11/17 04:02:50;;;;;;;;;51.25;38.25;;;;;12.33;66.70;101809.53;5092178;27;45482;-88
2021/11/17 04:05:19;;;;;;;;;44.75;39.25;;;;;12.34;66.83;101809.50;5099781;27;46031;-88
2021/11/17 04:07:47;;;;;;;;;47.25;38.50;;;;;12.35;66.74;101807.72;5099967;27;45253;-88
2021/11/17 04:10:24;;;;;;;;;46.00;37.75;;;;;12.36;67.23;101807.69;5099927;27;45484;-87
2021/11/17 04:13:17;;;;;;;;;46.50;37.75;;;;;12.32;66.88;101810.47;5099930;27;45379;-88
2021/11/17 04:15:54;;;;;;;;;44.25;36.75;;;;;12.37;66.48;101812.13;5098516;27;45263;-87
2021/11/17 04:18:48;;;;;;;;;49.00;39.50;;;;;12.38;66.62;101821.03;5100040;27;45388;-88
2021/11/17 04:21:21;;;;;;;;;49.25;37.50;;;;;12.38;66.73;101832.63;5098425;27;45471;-88
2021/11/17 04:24:05;;;;;;;;;48.00;38.75;;;;;12.38;66.66;101837.13;5098687;27;45251;-88
2021/11/17 04:26:37;;;;;;;;;53.50;38.50;;;;;12.37;66.87;101833.53;5089889;27;45407;-88
2021/11/17 04:29:32;;;;;;;;;47.25;36.25;;;;;12.38;66.65;101846.03;5103179;27;45731;-88
2021/11/17 04:32:19;;;;;;;;;49.00;37.50;;;;;12.40;66.71;101854.88;5103181;27;45316;-87
2021/11/17 04:35:02;;;;;;;;;43.50;36.50;;;;;12.41;66.78;101845.94;5102198;27;45827;-87
2021/11/17 04:37:53;;;;;;;;;51.00;37.00;;;;;12.44;66.83;101846.78;5099778;27;45965;-88
2021/11/17 04:40:21;;;;;;;;;37.00;33.00;;;;;12.45;66.88;101843.22;5101191;27;45424;-88
2021/11/17 04:42:49;;;;;;;;;40.25;34.00;;;;;12.47;66.91;101846.72;5103126;27;45262;-87
2021/11/17 04:45:20;;;;;;;;;36.50;33.75;;;;;12.48;66.80;101848.47;5101544;27;46118;-88
2021/11/17 04:48:06;;;;;;;;;36.25;33.50;;;;;12.48;66.67;101849.38;5102790;27;45498;-88
2021/11/17 04:50:50;;;;;;;;;44.00;34.25;;;;;12.50;66.96;101844.84;5101515;27;45259;-87
2021/11/17 04:53:18;;;;;;;;;40.00;33.75;;;;;12.51;66.82;101843.06;5098361;27;45354;-87
2021/11/17 04:56:08;;;;;;;;;46.75;35.00;;;;;12.50;66.64;101842.19;5102922;27;45243;-87
2021/11/17 04:58:52;;;;;;;;;39.25;31.00;;;;;12.45;66.81;101841.41;5101577;27;45388;-88
2021/11/17 05:01:20;;;;;;;;;38.50;33.75;;;;;12.52;67.13;101847.50;5101325;27;45533;-87
2021/11/17 05:03:55;;;;;;;;;44.75;36.00;;;;;12.51;67.08;101849.31;5102882;27;45324;-87
2021/11/17 05:06:45;;;;;;;;;36.25;32.25;;;;;12.51;67.43;101846.63;5088338;27;45370;-87
2021/11/17 05:09:28;;;;;;;;;39.75;33.00;;;;;12.48;67.50;101832.41;5101518;27;45484;-87
2021/11/17 05:12:02;;;;;;;;;28.75;24.00;;;;;12.51;67.36;101830.56;5100702;27;45546;-87
2021/11/17 05:14:27;;;;;;;;;33.50;27.00;;;;;12.52;67.53;101840.34;5102456;27;45542;-87
2021/11/17 05:16:56;;;;;;;;;41.67;34.67;;;;;12.54;67.73;101837.63;5102473;27;45327;-87
2021/11/17 05:20:09;;;;;;;;;36.00;31.25;;;;;12.54;67.60;101838.50;5101622;27;45501;-87
2021/11/17 05:22:40;;;;;;;;;32.75;31.75;;;;;12.54;67.88;101833.13;5097177;27;45258;-86
2021/11/17 05:25:24;;;;;;;;;35.25;31.25;;;;;12.55;67.91;101842.94;5101022;27;45420;-86
2021/11/17 05:28:01;;;;;;;;;41.50;34.25;;;;;12.53;68.00;101839.44;5102022;27;45270;-86
2021/11/17 05:30:36;;;;;;;;;32.25;28.00;;;;;12.55;67.73;101850.13;5097374;27;46197;-87
2021/11/17 05:33:11;;;;;;;;;33.75;27.25;;;;;12.55;68.17;101842.09;5088689;27;45377;-87
2021/11/17 05:35:52;;;;;;;;;28.25;25.75;;;;;12.56;68.05;101844.72;5079452;27;45428;-88
2021/11/17 05:38:32;;;;;;;;;28.75;26.50;;;;;12.56;68.08;101828.66;5101032;27;45377;-87
2021/11/17 05:41:25;;;;;;;;;29.00;26.25;;;;;12.57;68.31;101838.44;5088537;27;45457;-86
2021/11/17 05:43:59;;;;;;;;;27.50;26.00;;;;;12.59;68.08;101838.41;5102023;27;45690;-86
2021/11/17 05:46:34;;;;;;;;;24.25;20.75;;;;;12.56;68.13;101820.63;5094624;27;45419;-87
2021/11/17 05:49:05;;;;;;;;;24.50;22.75;;;;;12.63;67.93;101829.38;5093332;27;45445;-86
2021/11/17 05:51:43;;;;;;;;;25.00;23.50;;;;;12.62;67.83;101841.00;5101249;27;45303;-87
2021/11/17 05:54:37;;;;;;;;;25.75;23.75;;;;;12.63;67.92;101837.44;5100595;27;45405;-87
2021/11/17 05:57:24;;;;;;;;;25.75;23.50;;;;;12.63;68.02;101840.09;5101873;27;45415;-86
2021/11/17 06:00:28;;;;;;;;;28.00;21.75;;;;;12.62;67.78;101826.75;5101755;27;45280;-87
2021/11/17 06:03:33;;;;;;;;;25.50;24.75;;;;;12.66;67.88;101825.75;5090673;27;45461;-87
2021/11/17 06:05:58;;;;;;;;;24.50;23.00;;;;;12.65;68.03;101824.88;5089401;27;45328;-87
2021/11/17 06:08:24;;;;;;;;;26.00;24.67;;;;;12.66;68.29;101833.78;5101846;27;45407;-87
2021/11/17 06:10:54;;;;;;;;;27.75;25.50;;;;;12.62;68.35;101826.75;5101421;27;45302;-87
2021/11/17 06:13:19;;;;;;;;;27.00;25.00;;;;;12.65;68.22;101826.69;5101518;27;45325;-87
2021/11/17 06:15:47;;;;;;;;;27.25;25.25;;;;;12.65;68.15;101810.59;5101407;27;45228;-87
2021/11/17 06:18:15;;;;;;;;;27.00;23.25;;;;;12.68;68.06;101824.81;5101648;27;45400;-87
2021/11/17 06:20:43;;;;;;;;;30.50;27.00;;;;;12.66;68.24;101815.03;5093729;27;45475;-87
2021/11/17 06:23:24;;;;;;;;;25.50;24.75;;;;;12.69;68.23;101815.84;5097796;27;45221;-87
2021/11/17 06:25:50;;;;;;;;;32.00;28.00;;;;;12.71;68.07;101814.03;5101344;27;45380;-86
2021/11/17 06:28:20;;;;;;;;;26.75;25.75;;;;;12.68;68.02;101814.09;5101062;27;45296;-86
2021/11/17 06:30:46;;;;;;;;;29.50;27.50;;;;;12.68;68.05;101807.81;5101329;27;45171;-87
2021/11/17 06:33:11;;;;;;;;;27.75;26.00;;;;;12.65;68.14;101810.59;5101082;27;46284;-86
2021/11/17 06:35:39;;;;;;;;;31.00;27.00;;;;;12.69;68.36;101813.16;5101191;27;45238;-87
2021/11/17 06:38:06;;;;;;;;;30.75;26.50;;;;;12.71;68.42;101821.16;5101341;27;45266;-87
2021/11/17 06:40:34;;;;;;;;;20.75;20.25;;;;;12.69;68.21;101823.00;5087058;27;45338;-86
2021/11/17 06:43:00;;;;;;;;;31.25;27.50;;;;;12.64;68.42;101817.75;5101012;27;46205;-86
2021/11/17 06:45:31;;;;;;;;;28.00;24.75;;;;;12.71;68.36;101831.88;5100977;27;45528;-86
2021/11/17 06:47:57;;;;;;;;;32.75;31.25;;;;;12.66;68.19;101823.94;5100829;27;45317;-86
2021/11/17 06:50:22;;;;;;;;;33.75;28.75;;;;;12.67;68.15;101831.06;5095360;27;45397;-86
2021/11/17 06:52:48;;;;;;;;;23.50;22.50;;;;;12.69;68.39;101839.06;5100804;27;45494;-87
2021/11/17 06:55:14;;;;;;;;;31.25;29.75;;;;;12.74;68.21;101845.19;5100616;27;45344;-87
2021/11/17 06:57:40;;;;;;;;;26.00;23.25;;;;;12.66;68.05;101842.69;5100985;27;45250;-88
2021/11/17 07:00:11;;;;;;;;;29.75;25.00;;;;;12.72;68.01;101858.63;5100686;27;45369;-87
2021/11/17 07:02:37;;;;;;;;;32.00;27.50;;;;;12.73;67.99;101860.41;5100757;27;45425;-82
2021/11/17 07:05:03;;;;;;;;;33.25;29.75;;;;;12.74;68.40;101864.81;5100479;27;45278;-86
2021/11/17 07:07:29;;;;;;;;;28.50;24.25;;;;;12.77;68.08;101874.59;5100934;27;45486;-87
2021/11/17 07:09:54;;;;;;;;;34.50;29.75;;;;;12.74;67.96;101878.22;5100504;27;45564;-88
2021/11/17 07:12:20;;;;;;;;;29.00;25.50;;;;;12.78;68.05;101892.44;5100505;27;45405;-80
2021/11/17 07:14:45;;;;;;;;;31.00;26.00;;;;;12.76;68.22;101889.81;5100492;27;45218;-87
2021/11/17 07:17:11;;;;;;;;;29.50;27.75;;;;;12.80;68.16;101895.97;5095399;27;45505;-81
2021/11/17 07:19:37;;;;;;;;;32.25;30.25;;;;;12.81;68.20;101900.38;5099536;27;45455;-67
2021/11/17 07:22:06;;;;;;;;;31.50;30.25;;;;;12.81;68.00;101905.75;5088775;27;46386;-68
2021/11/17 07:24:33;;;;;;;;;28.25;25.25;;;;;12.82;68.23;101907.53;5099446;27;45657;-68
2021/11/17 07:26:59;;;;;;;;;25.00;22.75;;;;;12.80;68.24;101909.38;5099657;27;45428;-68
2021/11/17 07:29:24;;;;;;;;;25.75;22.75;;;;;12.78;68.42;101906.72;5099278;27;45157;-68
2021/11/17 07:31:50;;;;;;;;;24.25;20.75;;;;;12.81;68.39;101921.81;5099284;27;45285;-68
2021/11/17 07:34:16;;;;;;;;;31.75;25.50;;;;;12.79;68.54;101913.81;5099265;27;46595;-68
2021/11/17 07:36:43;;;;;;;;;29.50;23.50;;;;;12.81;68.22;101921.81;5097568;27;45511;-69
2021/11/17 07:39:14;;;;;;;;;24.75;23.00;;;;;12.83;68.27;101929.84;5099667;27;45447;-68
2021/11/17 07:41:45;;;;;;;;;21.50;20.75;;;;;12.85;68.42;101936.06;5099742;27;46652;-68
2021/11/17 07:44:14;;;;;;;;;19.75;19.00;;;;;12.85;68.53;101939.63;5099595;27;45785;-68
2021/11/17 07:46:40;;;;;;;;;21.50;20.50;;;;;12.82;68.48;101934.31;5099720;27;45312;-67
2021/11/17 07:49:06;;;;;;;;;26.75;26.00;;;;;12.83;68.55;101937.88;5099192;27;45214;-68
2021/11/17 07:51:31;;;;;;;;;27.50;25.00;;;;;12.87;68.56;101942.25;5099691;27;46835;-68
2021/11/17 07:53:56;;;;;;;;;30.75;29.50;;;;;12.83;68.66;101943.22;5097209;27;45334;-68
2021/11/17 07:56:22;;;;;;;;;28.00;26.25;;;;;12.86;68.48;101943.16;5097936;27;45377;-72
2021/11/17 07:58:47;;;;;;;;;26.25;24.50;;;;;12.87;68.74;101940.44;5084064;27;45587;-72
2021/11/17 08:01:14;;;;;;;;;27.75;26.50;;;;;12.88;68.77;101933.28;5099918;27;45462;-73
2021/11/17 08:03:43;;;;;;;;;26.75;26.75;;;;;12.81;68.61;101929.00;5102007;27;45340;-73
2021/11/17 08:06:12;;;;;;;;;34.50;27.50;;;;;12.88;68.52;101938.66;5101284;27;45446;-72
2021/11/17 08:08:38;;;;;;;;;27.75;25.75;;;;;12.92;68.56;101940.34;5100177;27;45434;-72
2021/11/17 08:11:07;;;;;;;;;28.50;25.50;;;;;12.93;68.75;101944.78;5096171;27;48426;-72
2021/11/17 08:13:33;;;;;;;;;24.50;20.75;;;;;12.89;68.62;101943.97;5099657;27;45604;-73
2021/11/17 08:16:00;;;;;;;;;28.25;23.75;;;;;12.93;68.96;101947.47;5099248;27;45502;-72
2021/11/17 08:18:26;;;;;;;;;24.75;22.50;;;;;12.90;68.89;101944.88;5096795;27;45540;-72
2021/11/17 08:20:51;;;;;;;;;26.00;21.75;;;;;12.91;68.94;101938.59;5097473;27;45806;-72
2021/11/17 08:23:17;;;;;;;;;24.50;22.25;;;;;12.89;68.91;101941.28;5100738;27;45535;-73
2021/11/17 08:25:42;;;;;;;;;30.50;27.00;;;;;12.91;69.08;101951.97;5101566;27;45228;-68
2021/11/17 08:28:10;;;;;;;;;28.25;24.75;;;;;12.90;68.98;101961.81;5100249;27;45309;-68
2021/11/17 08:30:36;;;;;;;;;29.00;25.50;;;;;12.90;69.11;101963.63;5099724;27;46309;-77
2021/11/17 08:33:03;;;;;;;;;25.50;20.25;;;;;12.88;69.04;101966.34;5100811;27;45418;-74
2021/11/17 08:35:29;;;;;;;;;24.75;21.50;;;;;12.87;69.12;101958.34;5090675;27;45674;-67
2021/11/17 08:37:56;;;;;;;;;27.50;24.25;;;;;12.95;68.96;101967.97;5099552;27;45491;-70
2021/11/17 08:40:35;;;;;;;;;30.00;22.25;;;;;12.95;69.30;101954.56;5099973;27;45417;-69
2021/11/17 08:43:01;;;;;;;;;24.25;21.75;;;;;13.02;69.42;101967.84;5100817;27;45482;-70
2021/11/17 08:45:27;;;;;;;;;27.50;25.25;;;;;13.05;69.00;101971.31;5101461;27;45474;-70
2021/11/17 08:47:53;;;;;;;;;30.00;27.50;;;;;13.06;69.14;101966.81;5101624;27;45462;-70
2021/11/17 08:50:23;;;;;;;;;26.50;25.25;;;;;13.07;68.85;101972.16;5099812;27;46432;-69
2021/11/17 08:52:51;;;;;;;;;29.25;23.75;;;;;13.06;68.81;101964.16;5101140;27;45675;-69
2021/11/17 08:55:16;;;;;;;;;30.50;28.50;;;;;13.06;69.01;101972.19;5101440;27;45422;-68
2021/11/17 08:57:44;;;;;;;;;30.25;27.50;;;;;13.06;69.06;101983.78;5100728;27;45503;-68
2021/11/17 09:00:12;;;;;;;;;26.00;26.00;;;;;13.08;69.58;101970.34;5100940;27;46222;-68
2021/11/17 09:02:43;;;;;;;;;28.00;25.25;;;;;13.11;69.16;101971.19;5098005;27;45783;-68
2021/11/17 09:05:14;;;;;;;;;33.00;24.00;;;;;13.13;68.95;101974.72;5100596;27;45404;-68
2021/11/17 09:07:40;;;;;;;;;32.75;25.50;;;;;13.16;68.94;101980.00;5100697;27;45966;-68
2021/11/17 09:10:08;;;;;;;;;26.00;25.00;;;;;13.19;68.97;101979.03;5099866;27;45382;-71
2021/11/17 09:12:34;;;;;;;;;29.25;24.25;;;;;13.22;68.81;101975.41;5099630;27;45724;-71
2021/11/17 09:14:59;;;;;;;;;30.00;24.50;;;;;13.20;68.66;101978.13;5097399;27;45478;-69
2021/11/17 09:17:24;;;;;;;;;28.50;26.50;;;;;13.25;68.81;101981.56;5100735;27;45377;-68
2021/11/17 09:19:50;;;;;;;;;30.75;27.00;;;;;13.24;68.79;101973.56;5090088;27;45328;-68
2021/11/17 09:22:15;;;;;;;;;32.50;28.25;;;;;13.26;68.80;101988.69;5092837;27;45274;-68
2021/11/17 09:24:41;;;;;;;;;26.75;24.50;;;;;13.27;68.56;101979.72;5099473;27;45306;-69
2021/11/17 09:27:06;;;;;;;;;33.50;30.00;;;;;13.30;69.00;101990.38;5096529;27;45305;-68
2021/11/17 09:29:33;;;;;;;;;30.00;28.25;;;;;13.31;68.76;101985.91;5098458;27;46137;-70
2021/11/17 09:31:59;;;;;;;;;30.00;28.25;;;;;13.29;68.90;101985.94;5101009;27;45394;-74
2021/11/17 09:34:25;;;;;;;;;29.75;26.75;;;;;13.31;68.63;101989.47;5099512;27;45706;-73
2021/11/17 09:36:50;;;;;;;;;31.50;29.75;;;;;13.32;68.73;101982.34;5094095;27;45462;-72
2021/11/17 09:39:16;;;;;;;;;28.00;26.50;;;;;13.36;68.76;101992.06;5100848;27;45409;-74
2021/11/17 09:41:46;;;;;;;;;31.25;27.25;;;;;13.34;68.75;101986.72;5101054;27;45396;-66
2021/11/17 09:44:17;;;;;;;;;32.75;27.50;;;;;13.41;68.93;101997.31;5100947;27;45471;-69
2021/11/17 09:46:45;;;;;;;;;35.75;28.75;;;;;13.42;68.91;102005.34;5094841;27;45962;-70
2021/11/17 09:49:29;;;;;;;;;32.75;29.50;;;;;13.43;68.71;102012.47;5100402;27;45483;-70
2021/11/17 09:52:02;;;;;;;;;32.00;28.00;;;;;13.41;68.78;102003.56;5099669;27;45384;-70
2021/11/17 09:54:39;;;;;;;;;27.25;26.00;;;;;13.46;69.08;102011.50;5099711;27;45463;-70
2021/11/17 09:57:14;;;;;;;;;28.75;28.25;;;;;13.47;69.00;102019.50;5098352;27;45365;-70
2021/11/17 10:00:05;;;;;;;;;28.00;25.00;;;;;13.48;69.00;102023.06;5101217;27;45496;-71
2021/11/17 10:02:43;;;;;;;;;28.75;25.75;;;;;13.49;69.04;102023.03;5090262;27;45613;-69
2021/11/17 10:05:47;;;;;;;;;20.75;17.25;;;;;13.53;68.74;102023.84;5100072;27;45391;-70
2021/11/17 10:08:48;;;;;;;;;31.25;28.25;;;;;13.54;68.77;102028.28;5100944;27;45716;-70
2021/11/17 10:11:45;;;;;;;;;28.50;24.00;;;;;13.53;69.20;102027.44;5099322;27;47311;-70
2021/11/17 10:14:23;;;;;;;;;28.50;25.75;;;;;13.55;69.11;102027.38;5084474;27;45806;-70
2021/11/17 10:16:50;;;;;;;;;32.25;25.75;;;;;13.57;68.96;102025.53;5097732;27;45315;-70
2021/11/17 10:19:25;;;;;;;;;31.50;28.25;;;;;13.59;69.17;102034.44;5099333;27;45755;-69
2021/11/17 10:22:07;;;;;;;;;29.50;25.50;;;;;13.61;68.88;102027.22;5087875;27;45620;-70
2021/11/17 10:24:48;;;;;;;;;33.50;29.25;;;;;13.64;68.70;102024.47;5099495;27;45865;-71
2021/11/17 10:27:24;;;;;;;;;26.00;23.50;;;;;13.67;68.75;102027.06;5093208;27;45626;-71
2021/11/17 10:30:11;;;;;;;;;30.00;27.75;;;;;13.67;68.71;102020.84;5099058;27;45477;-70
2021/11/17 10:32:39;;;;;;;;;26.75;24.00;;;;;13.71;68.85;102031.47;5100284;27;46395;-70
2021/11/17 10:35:30;;;;;;;;;31.50;28.00;;;;;13.70;69.00;102015.41;5097301;27;45504;-70
2021/11/17 10:38:10;;;;;;;;;33.25;26.50;;;;;13.75;68.65;102023.31;5096415;27;45434;-68
2021/11/17 10:41:01;;;;;;;;;30.25;26.75;;;;;13.80;68.91;102033.03;5099789;27;45479;-68
2021/11/17 10:43:31;;;;;;;;;27.75;23.50;;;;;13.84;68.74;102033.81;5089178;27;45615;-68
2021/11/17 10:46:09;;;;;;;;;28.75;26.00;;;;;13.84;68.47;102025.78;5099817;27;45628;-68
2021/11/17 10:48:49;;;;;;;;;27.25;26.75;;;;;13.88;68.50;102024.75;5098681;27;45432;-68
2021/11/17 10:51:32;;;;;;;;;36.00;28.00;;;;;13.82;68.48;102008.84;5094301;27;45491;-68
2021/11/17 10:54:00;;;;;;;;;28.50;27.50;;;;;13.91;68.63;102022.00;5097410;27;45403;-69
2021/11/17 10:56:28;;;;;;;;;34.50;30.25;;;;;13.94;68.27;102024.63;5099417;27;46014;-68
2021/11/17 10:58:57;;;;;;;;;28.75;26.00;;;;;13.93;68.27;102017.47;5098797;27;45425;-64
2021/11/17 11:01:30;;;;;;;;;32.50;26.50;;;;;13.96;68.50;102022.75;5092805;27;45507;-62
2021/11/17 11:04:24;;;;;;;;;31.50;26.50;;;;;13.95;68.34;102021.03;5098644;27;45559;-63
2021/11/17 11:06:56;;;;;;;;;26.75;23.75;;;;;13.90;68.50;102012.22;5098650;27;46099;-62
2021/11/17 11:09:28;;;;;;;;;26.75;25.75;;;;;13.94;68.50;102023.75;5099092;27;45337;-63
2021/11/17 11:11:55;;;;;;;;;24.50;24.25;;;;;13.96;68.43;102020.06;5099354;27;45258;-62
2021/11/17 11:14:26;;;;;;;;;22.25;21.25;;;;;13.96;68.30;102020.06;5098437;27;47423;-62
2021/11/17 11:17:20;;;;;;;;;23.75;21.25;;;;;13.93;68.18;102025.53;5098381;27;45804;-62
2021/11/17 11:19:46;;;;;;;;;23.25;22.50;;;;;13.94;68.50;102026.44;5096457;27;45563;-62
2021/11/17 11:22:16;;;;;;;;;22.75;22.00;;;;;13.94;68.02;102021.94;5099085;27;45375;-62
2021/11/17 11:24:50;;;;;;;;;20.00;17.75;;;;;13.96;68.32;102021.88;5093275;27;46093;-62
2021/11/17 11:27:20;;;;;;;;;18.50;18.50;;;;;13.96;67.87;102011.16;5098795;27;45334;-62
2021/11/17 11:30:09;;;;;;;;;22.00;20.00;;;;;13.97;68.28;102013.81;5099178;27;45552;-62
2021/11/17 11:32:34;;;;;;;;;19.25;18.25;;;;;13.98;67.81;102009.31;5098978;27;45440;-62
2021/11/17 11:34:59;;;;;;;;;24.00;21.00;;;;;13.98;67.95;102001.25;5098962;27;45472;-63
2021/11/17 11:37:25;;;;;;;;;21.00;20.50;;;;;13.99;67.89;102008.41;5101449;27;45586;-62
2021/11/17 11:40:11;;;;;;;;;19.25;18.75;;;;;14.01;67.84;102004.72;5098667;27;45202;-63
2021/11/17 11:43:00;;;;;;;;;17.75;16.50;;;;;14.04;67.99;102007.34;5091765;27;45572;-63
2021/11/17 11:45:26;;;;;;;;;22.00;19.00;;;;;14.05;68.21;102014.47;5102325;27;45453;-63
2021/11/17 11:48:00;;;;;;;;;17.50;16.25;;;;;14.05;67.90;102011.78;5101453;27;45857;-62
2021/11/17 11:50:35;;;;;;;;;20.75;18.75;;;;;14.07;67.88;102012.63;5099590;27;45416;-63
2021/11/17 11:53:12;;;;;;;;;17.25;16.50;;;;;14.08;67.64;102009.03;5097576;27;45716;-66
2021/11/17 11:56:01;;;;;;;;;20.00;17.75;;;;;14.10;67.80;102009.00;5100936;27;47602;-67
2021/11/17 11:58:26;;;;;;;;;18.75;18.75;;;;;14.12;67.89;102017.88;5101872;27;45348;-67
2021/11/17 12:00:59;;;;;;;;;23.50;22.00;;;;;14.15;68.04;102011.53;5101735;27;45353;-67
2021/11/17 12:03:28;;;;;;;;;23.00;19.75;;;;;14.15;67.95;102015.13;5099409;27;45599;-67
2021/11/17 12:06:01;;;;;;;;;23.50;20.50;;;;;14.15;67.83;102007.06;5101573;27;46038;-69
2021/11/17 12:08:50;;;;;;;;;20.50;18.00;;;;;14.16;67.47;102003.44;5100137;27;45461;-68
2021/11/17 12:11:21;;;;;;;;;23.50;19.50;;;;;14.11;68.06;101991.06;5101222;27;45525;-69
2021/11/17 12:14:06;;;;;;;;;24.25;21.25;;;;;14.17;67.73;101990.91;5101914;27;45704;-68
2021/11/17 12:16:34;;;;;;;;;13.50;13.50;;;;;14.18;67.85;101992.66;5099296;27;46909;-69
2021/11/17 12:19:12;;;;;;;;;20.00;16.00;;;;;14.17;67.63;101993.59;5101192;27;45298;-68
2021/11/17 12:21:43;;;;;;;;;18.50;14.75;;;;;14.18;67.47;101995.34;5095604;27;45412;-68
2021/11/17 12:24:24;;;;;;;;;17.00;13.75;;;;;14.14;67.65;101983.81;5088138;27;45781;-68
2021/11/17 12:27:09;;;;;;;;;19.00;17.50;;;;;14.23;67.60;101996.09;5092189;27;46240;-70
2021/11/17 12:29:43;;;;;;;;;18.75;17.50;;;;;14.23;67.60;101999.69;5095327;27;45567;-68
2021/11/17 12:32:24;;;;;;;;;14.50;14.50;;;;;14.27;67.56;102003.16;5098715;27;45494;-70
2021/11/17 12:35:13;;;;;;;;;16.25;14.00;;;;;14.24;67.76;101995.19;5090664;27;45476;-68
2021/11/17 12:38:02;;;;;;;;;16.50;15.00;;;;;14.27;67.89;101998.66;5104970;27;47068;-68
2021/11/17 12:40:34;;;;;;;;;13.75;13.25;;;;;14.31;67.58;102010.19;5086622;27;45452;-68
2021/11/17 12:43:04;;;;;;;;;13.75;13.75;;;;;14.27;67.61;101992.41;5112440;27;45534;-70
2021/11/17 12:45:39;;;;;;;;;13.00;13.00;;;;;14.30;67.85;101999.50;5106598;27;45773;-72
2021/11/17 12:48:26;;;;;;;;;14.75;12.50;;;;;14.35;67.86;102008.28;5093883;27;47116;-72
2021/11/17 12:51:12;;;;;;;;;16.25;14.75;;;;;14.34;68.00;102006.56;5095915;27;45766;-69
2021/11/17 12:53:46;;;;;;;;;17.00;15.50;;;;;14.29;67.56;102001.31;5092357;27;45917;-68
2021/11/17 12:56:23;;;;;;;;;19.75;17.75;;;;;14.39;67.56;102008.19;5097994;27;45977;-68
2021/11/17 12:59:08;;;;;;;;;17.75;15.00;;;;;14.38;67.91;102005.53;5096507;27;46283;-68
2021/11/17 13:01:45;;;;;;;;;12.75;12.00;;;;;14.40;67.99;102003.66;5099841;27;45696;-68
2021/11/17 13:04:13;;;;;;;;;14.00;12.75;;;;;14.41;67.72;101998.25;5099992;27;45361;-68
2021/11/17 13:06:41;;;;;;;;;12.75;11.50;;;;;14.44;67.74;102000.88;5100715;27;45618;-68
2021/11/17 13:09:13;;;;;;;;;13.25;12.50;;;;;14.44;67.90;102000.88;5101478;27;45605;-68
2021/11/17 13:12:06;;;;;;;;;17.75;14.00;;;;;14.30;67.59;101970.84;5101130;27;45683;-68
2021/11/17 13:14:47;;;;;;;;;12.75;12.00;;;;;14.50;67.45;101990.88;5098321;27;45498;-68
2021/11/17 13:17:23;;;;;;;;;12.00;11.25;;;;;14.52;67.58;101989.91;5092903;27;45847;-68
2021/11/17 13:19:51;;;;;;;;;11.00;10.50;;;;;14.55;67.36;101994.28;5100907;27;46870;-68
2021/11/17 13:22:25;;;;;;;;;10.25;9.75;;;;;14.58;66.87;101996.91;5094567;27;45634;-68
2021/11/17 13:25:12;;;;;;;;;10.00;10.00;;;;;14.60;66.88;102004.03;5087639;27;45446;-68
2021/11/17 13:27:47;;;;;;;;;10.00;9.00;;;;;14.60;66.87;101995.97;5100721;27;45332;-68
2021/11/17 13:30:12;;;;;;;;;7.50;6.75;;;;;14.62;66.75;101998.63;5100845;27;46134;-68
2021/11/17 13:32:44;;;;;;;;;8.50;7.00;;;;;14.59;66.89;101996.88;5100886;27;45359;-68
2021/11/17 13:35:33;;;;;;;;;8.00;8.00;;;;;14.63;66.55;102008.44;5099624;27;45329;-68
2021/11/17 13:38:11;;;;;;;;;9.50;7.25;;;;;14.64;66.45;102011.06;5088825;27;45622;-68
2021/11/17 13:40:39;;;;;;;;;8.00;6.75;;;;;14.61;66.52;102003.09;5100393;27;45885;-68
2021/11/17 13:43:05;;;;;;;;;7.75;6.00;;;;;14.64;66.52;102010.19;5100767;27;45317;-68
2021/11/17 13:45:31;;;;;;;;;7.50;6.00;;;;;14.65;66.64;102014.66;5099632;27;45662;-68
2021/11/17 13:47:57;;;;;;;;;6.00;6.00;;;;;14.63;66.52;102022.75;5086961;27;45592;-68
2021/11/17 13:50:25;;;;;;;;;5.75;5.75;;;;;14.63;66.01;102021.88;5097993;27;45660;-67
2021/11/17 13:52:51;;;;;;;;;7.25;6.50;;;;;14.64;66.20;102021.81;5100019;27;45954;-67
2021/11/17 13:55:23;;;;;;;;;7.00;7.00;;;;;14.64;66.15;102015.56;5093107;27;45500;-67
2021/11/17 13:57:50;;;;;;;;;6.00;5.75;;;;;14.67;66.24;102019.97;5094063;27;45708;-71
2021/11/17 14:00:17;;;;;;;;;4.25;3.50;;;;;14.67;66.39;102020.88;5099650;27;45468;-75
2021/11/17 14:02:45;;;;;;;;;9.25;9.25;;;;;14.66;66.46;102021.78;5101446;27;45455;-76
2021/11/17 14:05:12;;;;;;;;;6.00;5.00;;;;;14.66;66.14;102021.78;5101075;27;45278;-68
2021/11/17 14:07:37;;;;;;;;;6.25;5.00;;;;;14.67;66.05;102019.97;5100962;27;45482;-71
2021/11/17 14:10:05;;;;;;;;;6.00;5.00;;;;;14.71;66.00;102027.91;5097295;27;48414;-69